createdAt,value
2023-01-05T00:02:24.780Z,1002.24
2023-01-05T00:05:32.829Z,1002.44
2023-01-05T00:08:40.767Z,1002.47
2023-01-05T00:11:48.866Z,1002.39
2023-01-05T00:14:57.011Z,1002.45
2023-01-05T00:18:05.558Z,1002.41
2023-01-05T00:21:13.455Z,1002.36
2023-01-05T00:24:21.545Z,1002.49
2023-01-05T00:27:29.749Z,1002.47
2023-01-05T00:30:37.684Z,1002.44
2023-01-05T00:33:46.149Z,1002.54
2023-01-05T00:36:54.063Z,1002.44
2023-01-05T00:40:01.805Z,1002.46
2023-01-05T00:43:09.933Z,1002.46
2023-01-05T00:46:17.677Z,1002.40
2023-01-05T00:49:26.004Z,1002.32
2023-01-05T00:52:34.228Z,1002.46
2023-01-05T00:55:41.806Z,1002.35
2023-01-05T00:58:50.079Z,1002.41
2023-01-05T01:01:58.167Z,1002.47
2023-01-05T01:05:06.617Z,1002.49
2023-01-05T01:08:14.491Z,1002.52
2023-01-05T01:11:22.375Z,1002.46
2023-01-05T01:14:30.689Z,1002.52
2023-01-05T01:17:38.655Z,1002.48
2023-01-05T01:20:46.586Z,1002.56
2023-01-05T01:23:54.301Z,1002.64
2023-01-05T01:27:02.182Z,1002.59
2023-01-05T01:30:10.418Z,1002.64
2023-01-05T01:33:18.067Z,1002.83
2023-01-05T01:37:06.680Z,1002.80
2023-01-05T01:40:15.105Z,1002.75
2023-01-05T01:43:23.038Z,1002.87
2023-01-05T01:46:30.365Z,1002.84
2023-01-05T01:49:37.992Z,1002.82
2023-01-05T01:52:46.319Z,1002.85
2023-01-05T01:55:53.375Z,1002.83
2023-01-05T01:59:01.388Z,1002.83
2023-01-05T02:02:09.202Z,1002.87
2023-01-05T02:05:16.489Z,1002.85
2023-01-05T02:08:24.582Z,1002.90
2023-01-05T02:11:32.017Z,1002.88
2023-01-05T02:14:39.640Z,1002.90
2023-01-05T02:17:47.551Z,1002.79
2023-01-05T02:20:55.025Z,1002.80
2023-01-05T02:24:02.574Z,1002.75
2023-01-05T02:27:10.274Z,1002.81
2023-01-05T02:30:18.209Z,1002.70
2023-01-05T02:33:25.860Z,1002.65
2023-01-05T02:36:33.553Z,1002.73
2023-01-05T02:39:41.330Z,1002.68
2023-01-05T02:42:48.840Z,1002.74
2023-01-05T02:45:56.427Z,1002.70
2023-01-05T02:49:04.286Z,1002.66
2023-01-05T02:52:12.161Z,1002.63
2023-01-05T02:55:20.050Z,1002.76
2023-01-05T02:58:28.004Z,1002.59
2023-01-05T03:01:35.451Z,1002.82
2023-01-05T03:04:43.662Z,1002.87
2023-01-05T03:07:51.584Z,1002.87
2023-01-05T03:10:58.870Z,1002.80
2023-01-05T03:14:06.624Z,1002.90
2023-01-05T03:17:14.528Z,1002.97
2023-01-05T03:20:22.309Z,1003.10
2023-01-05T03:23:30.379Z,1003.17
2023-01-05T03:26:38.622Z,1003.07
2023-01-05T03:29:46.326Z,1003.24
2023-01-05T03:32:53.989Z,1003.21
2023-01-05T03:36:01.605Z,1003.13
2023-01-05T03:39:09.390Z,1003.18
2023-01-05T03:42:17.256Z,1003.18
2023-01-05T03:45:25.268Z,1003.29
2023-01-05T03:48:32.601Z,1003.21
2023-01-05T03:51:42.171Z,1003.38
2023-01-05T03:54:49.762Z,1003.40
2023-01-05T03:57:57.627Z,1003.45
2023-01-05T04:01:05.453Z,1003.34
2023-01-05T04:04:13.103Z,1003.35
2023-01-05T04:07:21.286Z,1003.33
2023-01-05T04:10:29.016Z,1003.31
2023-01-05T04:13:36.661Z,1003.31
2023-01-05T04:16:44.137Z,1003.40
2023-01-05T04:19:52.318Z,1003.38
2023-01-05T04:23:00.799Z,1003.51
2023-01-05T04:26:08.038Z,1003.46
2023-01-05T04:29:16.008Z,1003.56
2023-01-05T04:32:23.652Z,1003.49
2023-01-05T04:35:30.858Z,1003.50
2023-01-05T04:38:39.032Z,1003.59
2023-01-05T04:41:46.884Z,1003.49
2023-01-05T04:44:54.285Z,1003.57
2023-01-05T04:48:02.368Z,1003.57
2023-01-05T04:51:10.106Z,1003.71
2023-01-05T04:54:17.822Z,1003.61
2023-01-05T04:57:25.868Z,1003.76
2023-01-05T05:00:33.721Z,1003.77
2023-01-05T05:03:41.721Z,1003.72
2023-01-05T05:06:49.819Z,1003.88
2023-01-05T05:09:57.307Z,1003.89
2023-01-05T05:13:05.168Z,1003.82
2023-01-05T05:16:13.138Z,1003.94
2023-01-05T05:19:20.817Z,1003.90
2023-01-05T05:22:28.431Z,1003.88
2023-01-05T05:25:37.288Z,1004.01
2023-01-05T05:28:45.364Z,1004.00
2023-01-05T05:31:53.132Z,1003.95
2023-01-05T05:35:00.400Z,1004.06
2023-01-05T05:38:08.223Z,1003.99
2023-01-05T05:41:16.011Z,1004.13
2023-01-05T05:44:23.532Z,1004.17
2023-01-05T05:47:31.730Z,1004.32
2023-01-05T05:50:39.435Z,1004.41
2023-01-05T05:53:46.755Z,1004.46
2023-01-05T05:56:54.854Z,1004.52
2023-01-05T06:00:02.145Z,1004.49
2023-01-05T06:03:10.175Z,1004.45
2023-01-05T06:06:18.360Z,1004.56
2023-01-05T06:09:26.162Z,1004.54
2023-01-05T06:12:34.219Z,1004.51
2023-01-05T06:15:42.421Z,1004.46
2023-01-05T06:18:50.000Z,1004.44
2023-01-05T06:21:57.907Z,1004.65
2023-01-05T06:25:05.665Z,1004.70
2023-01-05T06:28:19.948Z,1004.63
2023-01-05T06:31:17.318Z,1004.68
2023-01-05T06:34:24.969Z,1004.73
2023-01-05T06:37:32.919Z,1004.67
2023-01-05T06:40:40.243Z,1004.76
2023-01-05T06:43:47.888Z,1004.84
2023-01-05T06:46:56.184Z,1004.77
2023-01-05T06:50:03.971Z,1004.91
2023-01-05T06:53:11.450Z,1004.98
2023-01-05T06:56:19.295Z,1005.12
2023-01-05T06:59:26.957Z,1005.15
2023-01-05T07:02:34.505Z,1005.19
2023-01-05T07:05:42.468Z,1005.22
2023-01-05T07:08:49.724Z,1005.13
2023-01-05T07:11:57.739Z,1005.22
2023-01-05T07:15:05.538Z,1005.25
2023-01-05T07:18:13.292Z,1005.47
2023-01-05T07:21:21.042Z,1005.56
2023-01-05T07:24:28.747Z,1005.55
2023-01-05T07:27:36.033Z,1005.62
2023-01-05T07:30:43.598Z,1005.61
2023-01-05T07:33:51.116Z,1005.61
2023-01-05T07:36:58.783Z,1005.60
2023-01-05T07:40:06.623Z,1005.74
2023-01-05T07:43:14.400Z,1005.72
2023-01-05T07:46:21.949Z,1005.89
2023-01-05T07:49:29.554Z,1005.91
2023-01-05T07:52:37.811Z,1005.94
2023-01-05T07:55:45.369Z,1005.88
2023-01-05T07:58:53.189Z,1005.98
2023-01-05T08:02:01.382Z,1005.90
2023-01-05T08:05:08.747Z,1006.00
2023-01-05T08:08:22.234Z,1006.12
2023-01-05T08:11:20.936Z,1006.10
2023-01-05T08:14:28.658Z,1006.17
2023-01-05T08:17:36.499Z,1006.22
2023-01-05T08:20:44.299Z,1006.16
2023-01-05T08:23:52.054Z,1006.41
2023-01-05T08:26:59.602Z,1006.40
2023-01-05T08:30:07.621Z,1006.47
2023-01-05T08:33:14.823Z,1006.46
2023-01-05T08:36:22.813Z,1006.47
2023-01-05T08:39:30.779Z,1006.45
2023-01-05T08:42:38.139Z,1006.43
2023-01-05T08:45:46.174Z,1006.48
2023-01-05T08:48:54.040Z,1006.40
2023-01-05T08:52:01.147Z,1006.49
2023-01-05T08:55:09.092Z,1006.41
2023-01-05T08:58:16.520Z,1006.61
2023-01-05T09:01:24.063Z,1006.62
2023-01-05T09:04:32.133Z,1006.69
2023-01-05T09:07:39.583Z,1006.69
2023-01-05T09:10:47.330Z,1006.66
2023-01-05T09:13:55.307Z,1006.74
2023-01-05T09:17:07.433Z,1006.74
2023-01-05T09:20:04.918Z,1006.89
2023-01-05T09:23:12.565Z,1006.86
2023-01-05T09:26:20.535Z,1007.04
2023-01-05T09:29:28.050Z,1007.03
2023-01-05T09:32:35.587Z,1007.10
2023-01-05T09:35:43.877Z,1007.18
2023-01-05T09:38:51.196Z,1007.25
2023-01-05T09:41:59.256Z,1007.25
2023-01-05T09:45:07.402Z,1007.33
2023-01-05T09:48:14.751Z,1007.35
2023-01-05T09:51:22.720Z,1007.41
2023-01-05T09:54:30.710Z,1007.52
2023-01-05T09:57:38.256Z,1007.56
2023-01-05T10:00:45.572Z,1007.68
2023-01-05T10:04:03.465Z,1007.62
2023-01-05T10:06:58.315Z,1007.77
2023-01-05T10:10:05.998Z,1007.73
2023-01-05T10:13:13.702Z,1007.74
2023-01-05T10:16:27.545Z,1007.86
2023-01-05T10:19:25.539Z,1007.87
2023-01-05T10:22:38.423Z,1007.87
2023-01-05T10:25:36.153Z,1007.92
2023-01-05T10:28:43.290Z,1007.99
2023-01-05T10:31:51.109Z,1008.07
2023-01-05T10:34:59.473Z,1008.13
2023-01-05T10:38:06.688Z,1008.40
2023-01-05T10:41:14.852Z,1008.38
2023-01-05T10:44:22.888Z,1008.42
2023-01-05T10:47:30.112Z,1008.52
2023-01-05T10:50:38.067Z,1008.57
2023-01-05T10:53:45.652Z,1008.57
2023-01-05T10:56:53.134Z,1008.60
2023-01-05T11:00:01.570Z,1008.62
2023-01-05T11:03:09.228Z,1008.72
2023-01-05T11:06:16.845Z,1008.70
2023-01-05T11:09:24.882Z,1008.78
2023-01-05T11:12:32.444Z,1008.76
2023-01-05T11:15:40.260Z,1008.80
2023-01-05T11:18:48.097Z,1008.88
2023-01-05T11:22:01.704Z,1008.83
2023-01-05T11:24:59.023Z,1008.76
2023-01-05T11:28:06.782Z,1008.68
2023-01-05T11:31:14.259Z,1008.68
2023-01-05T11:34:22.018Z,1008.80
2023-01-05T11:37:29.598Z,1008.80
2023-01-05T11:40:37.375Z,1008.80
2023-01-05T11:43:44.984Z,1008.88
2023-01-05T11:46:52.592Z,1008.94
2023-01-05T11:50:05.323Z,1009.05
2023-01-05T11:53:04.245Z,1008.91
2023-01-05T11:56:12.018Z,1008.98
2023-01-05T11:59:20.031Z,1009.03
2023-01-05T12:02:27.254Z,1008.98
2023-01-05T12:05:35.089Z,1008.95
2023-01-05T12:08:42.828Z,1008.97
2023-01-05T12:11:49.872Z,1008.95
2023-01-05T12:14:58.040Z,1008.91
2023-01-05T12:18:05.551Z,1008.92
2023-01-05T12:21:13.142Z,1008.90
2023-01-05T12:24:21.269Z,1008.95
2023-01-05T12:27:28.731Z,1008.87
2023-01-05T12:36:46.187Z,1009.01
2023-01-05T12:39:53.736Z,1009.11
2023-01-05T12:43:01.015Z,1009.17
2023-01-05T12:46:09.096Z,1009.23
2023-01-05T12:49:16.657Z,1009.30
2023-01-05T12:52:24.218Z,1009.35
2023-01-05T12:55:32.050Z,1009.22
2023-01-05T12:58:39.689Z,1009.25
2023-01-05T13:01:47.399Z,1009.33
2023-01-05T13:04:56.617Z,1009.46
2023-01-05T13:08:04.060Z,1009.33
2023-01-05T13:11:12.020Z,1009.36
2023-01-05T13:14:19.950Z,1009.36
2023-01-05T13:17:27.240Z,1009.44
2023-01-05T13:20:35.242Z,1009.48
2023-01-05T13:23:43.004Z,1009.49
2023-01-05T13:26:50.182Z,1009.38
2023-01-05T13:29:58.193Z,1009.59
2023-01-05T13:33:06.012Z,1009.59
2023-01-05T13:36:13.766Z,1009.68
2023-01-05T13:39:21.398Z,1009.70
2023-01-05T13:42:29.128Z,1009.70
2023-01-05T13:45:37.044Z,1009.76
2023-01-05T13:48:57.538Z,1009.94
2023-01-05T13:51:49.383Z,1009.83
2023-01-05T13:55:01.355Z,1009.89
2023-01-05T13:57:58.481Z,1009.94
2023-01-05T14:01:06.159Z,1010.20
2023-01-05T14:04:14.519Z,1010.22
2023-01-05T14:07:21.887Z,1010.21
2023-01-05T14:10:30.043Z,1010.31
2023-01-05T14:13:37.713Z,1010.26
2023-01-05T14:16:45.013Z,1010.38
2023-01-05T14:19:52.880Z,1010.36
2023-01-05T14:23:00.839Z,1010.38
2023-01-05T14:26:07.965Z,1010.43
2023-01-05T14:29:16.032Z,1010.54
2023-01-05T14:32:23.676Z,1010.52
2023-01-05T14:35:31.208Z,1010.54
2023-01-05T14:38:39.044Z,1010.67
2023-01-05T14:41:46.845Z,1010.67
2023-01-05T14:44:54.523Z,1010.73
2023-01-05T14:48:02.134Z,1010.88
2023-01-05T14:51:10.090Z,1010.97
2023-01-05T14:54:17.808Z,1011.03
2023-01-05T14:57:25.263Z,1011.06
2023-01-05T15:00:33.597Z,1011.14
2023-01-05T15:03:41.240Z,1011.17
2023-01-05T15:06:48.748Z,1011.22
2023-01-05T15:09:56.691Z,1011.19
2023-01-05T15:13:03.843Z,1011.27
2023-01-05T15:19:20.495Z,1011.21
2023-01-05T15:22:38.074Z,1011.24
2023-01-05T15:25:32.647Z,1011.23
2023-01-05T15:28:40.597Z,1011.34
2023-01-05T15:31:49.064Z,1011.32
2023-01-05T15:34:57.247Z,1011.41
2023-01-05T15:41:12.440Z,1011.53
2023-01-05T15:44:20.481Z,1011.59
2023-01-05T15:47:28.011Z,1011.59
2023-01-05T15:50:35.763Z,1011.59
2023-01-05T15:53:43.746Z,1011.71
2023-01-05T15:56:51.115Z,1011.62
2023-01-05T15:59:58.914Z,1011.66
2023-01-05T16:03:06.024Z,1011.87
2023-01-05T16:06:14.008Z,1011.87
2023-01-05T16:09:21.886Z,1011.83
2023-01-05T16:12:28.953Z,1011.88
2023-01-05T16:15:36.979Z,1011.89
2023-01-05T16:18:44.836Z,1011.81
2023-01-05T16:21:52.198Z,1011.92
2023-01-05T16:25:00.264Z,1011.90
2023-01-05T16:28:08.842Z,1011.96
2023-01-05T16:31:16.618Z,1011.94
2023-01-05T16:34:24.595Z,1011.93
2023-01-05T16:37:32.238Z,1011.89
2023-01-05T16:40:39.399Z,1012.08
2023-01-05T16:43:47.548Z,1012.04
2023-01-05T16:46:54.951Z,1012.08
2023-01-05T16:50:02.417Z,1012.13
2023-01-05T16:53:10.235Z,1012.13
2023-01-05T16:56:17.631Z,1012.21
2023-01-05T16:59:25.113Z,1012.25
2023-01-05T17:02:32.692Z,1012.25
2023-01-05T17:05:40.659Z,1012.31
2023-01-05T17:08:48.110Z,1012.34
2023-01-05T17:11:55.790Z,1012.33
2023-01-05T17:15:03.795Z,1012.35
2023-01-05T17:18:11.681Z,1012.47
2023-01-05T17:21:19.421Z,1012.51
2023-01-05T17:24:27.221Z,1012.52
2023-01-05T17:27:34.651Z,1012.43
2023-01-05T17:30:42.118Z,1012.50
2023-01-05T17:33:50.126Z,1012.60
2023-01-05T17:36:57.403Z,1012.50
2023-01-05T17:40:05.264Z,1012.52
2023-01-05T17:43:12.835Z,1012.56
2023-01-05T17:46:20.777Z,1012.62
2023-01-05T17:52:35.644Z,1012.61
2023-01-05T17:55:43.589Z,1012.60
2023-01-05T17:58:51.570Z,1012.62
2023-01-05T18:01:59.488Z,1012.66
2023-01-05T18:05:07.492Z,1012.68
2023-01-05T18:08:14.910Z,1012.66
2023-01-05T18:11:23.099Z,1012.63
2023-01-05T18:14:30.914Z,1012.65
2023-01-05T18:17:38.299Z,1012.59
2023-01-05T18:20:45.849Z,1012.62
2023-01-05T18:23:53.926Z,1012.54
2023-01-05T18:27:01.377Z,1012.53
2023-01-05T18:30:09.639Z,1012.54
2023-01-05T18:33:17.459Z,1012.60
2023-01-05T18:36:24.958Z,1012.60
2023-01-05T18:39:32.769Z,1012.60
2023-01-05T18:42:40.739Z,1012.53
2023-01-05T18:45:49.329Z,1012.55
2023-01-05T18:48:58.370Z,1012.45
2023-01-05T18:52:06.543Z,1012.54
2023-01-05T18:55:14.739Z,1012.57
2023-01-05T18:58:22.556Z,1012.59
2023-01-05T19:01:30.274Z,1012.66
2023-01-05T19:04:37.976Z,1012.61
2023-01-05T19:07:45.575Z,1012.60
2023-01-05T19:10:53.750Z,1012.61
2023-01-05T19:14:01.379Z,1012.74
2023-01-05T19:17:08.796Z,1012.80
2023-01-05T19:20:16.425Z,1012.72
2023-01-05T19:23:24.747Z,1012.68
2023-01-05T19:26:32.290Z,1012.64
2023-01-05T19:29:40.039Z,1012.57
2023-01-05T19:32:47.777Z,1012.49
2023-01-05T19:35:55.963Z,1012.51
2023-01-05T19:39:03.420Z,1012.57
2023-01-05T19:42:11.230Z,1012.55
2023-01-05T19:45:19.648Z,1012.61
2023-01-05T19:48:27.341Z,1012.59
2023-01-05T19:51:35.254Z,1012.58
2023-01-05T19:54:42.997Z,1012.55
2023-01-05T19:57:50.724Z,1012.53
2023-01-05T20:00:58.358Z,1012.42
2023-01-05T20:04:06.419Z,1012.46
2023-01-05T20:07:13.994Z,1012.47
2023-01-05T20:10:21.677Z,1012.46
2023-01-05T20:13:29.395Z,1012.44
2023-01-05T20:16:36.972Z,1012.47
2023-01-05T20:19:44.944Z,1012.41
2023-01-05T20:22:52.934Z,1012.42
2023-01-05T20:26:00.167Z,1012.46
2023-01-05T20:29:08.396Z,1012.54
2023-01-05T20:32:16.034Z,1012.55
2023-01-05T20:35:23.492Z,1012.54
2023-01-05T20:38:31.551Z,1012.46
2023-01-05T20:41:38.997Z,1012.55
2023-01-05T20:44:47.138Z,1012.46
2023-01-05T20:47:55.177Z,1012.53
2023-01-05T20:51:02.475Z,1012.45
2023-01-05T20:54:10.435Z,1012.51
2023-01-05T20:57:18.556Z,1012.52
2023-01-05T21:00:26.058Z,1012.54
2023-01-05T21:03:34.048Z,1012.59
2023-01-05T21:06:41.621Z,1012.52
2023-01-05T21:09:49.635Z,1012.56
2023-01-05T21:12:58.120Z,1012.53
2023-01-05T21:16:03.101Z,1012.52
2023-01-05T21:19:11.011Z,1012.57
2023-01-05T21:22:18.842Z,1012.47
2023-01-05T21:25:26.523Z,1012.54
2023-01-05T21:28:33.984Z,1012.59
2023-01-05T21:31:41.240Z,1012.57
2023-01-05T21:34:49.373Z,1012.53
2023-01-05T21:37:57.204Z,1012.55
2023-01-05T21:41:04.545Z,1012.51
2023-01-05T21:44:12.293Z,1012.49
2023-01-05T21:47:20.408Z,1012.47
2023-01-05T21:50:27.643Z,1012.50
2023-01-05T21:53:35.099Z,1012.52
2023-01-05T21:56:42.695Z,1012.50
2023-01-05T21:59:50.540Z,1012.42
2023-01-05T22:02:58.571Z,1012.37
2023-01-05T22:06:05.748Z,1012.39
2023-01-05T22:09:13.214Z,1012.41
2023-01-05T22:12:20.792Z,1012.35
2023-01-05T22:15:28.274Z,1012.29
2023-01-05T22:18:35.662Z,1012.31
2023-01-05T22:21:43.241Z,1012.29
2023-01-05T22:24:50.932Z,1012.28
2023-01-05T22:27:58.420Z,1012.28
2023-01-05T22:31:06.124Z,1012.30
2023-01-05T22:34:14.187Z,1012.31
2023-01-05T22:37:21.727Z,1012.31
2023-01-05T22:40:28.934Z,1012.17
2023-01-05T22:43:36.903Z,1012.23
2023-01-05T22:46:44.421Z,1012.23
2023-01-05T22:49:51.843Z,1012.27
2023-01-05T22:52:59.571Z,1012.18
2023-01-05T22:56:07.151Z,1012.27
2023-01-05T22:59:14.322Z,1012.24
2023-01-05T23:02:22.432Z,1012.27
2023-01-05T23:05:29.902Z,1012.20
2023-01-05T23:08:37.364Z,1012.19
2023-01-05T23:11:46.357Z,1012.06
2023-01-05T23:14:54.174Z,1012.01
2023-01-05T23:18:01.910Z,1012.09
2023-01-05T23:21:09.648Z,1012.03
2023-01-05T23:24:17.477Z,1012.03
2023-01-05T23:27:24.986Z,1011.99
2023-01-05T23:30:32.534Z,1012.01
2023-01-05T23:33:40.325Z,1011.94
2023-01-05T23:36:47.832Z,1011.76
2023-01-05T23:39:55.312Z,1011.80
2023-01-05T23:43:02.995Z,1011.80
2023-01-05T23:46:10.152Z,1011.76
2023-01-05T23:49:18.008Z,1011.70
2023-01-05T23:52:25.934Z,1011.70
2023-01-05T23:55:33.183Z,1011.61
2023-01-05T23:58:41.043Z,1011.74
